Time;durP1;ratioP1;P1;durP2;ratioP2;P2;SDS_P1;SDS_P2;PMS_P1;PMS_P2;Temp;Humidity;BMP_temperature;BMP_pressure;BME280_temperature;BME280_humidity;BME280_pressure;Samples;Min_cycle;Max_cycle;Signal;HPM_P1;HPM_P2
2022/10/24 00:00:44;;;;;;;14.73;1.95;;;;;;;14.15;100.00;99307.63;5036746;28;20366;-73
2022/10/24 00:03:10;;;;;;;13.27;1.92;;;;;;;14.16;100.00;99286.91;4987841;28;20033;-73
2022/10/24 00:05:35;;;;;;;15.07;2.50;;;;;;;14.17;100.00;99294.13;5030868;28;20030;-74
2022/10/24 00:08:01;;;;;;;16.35;2.75;;;;;;;14.16;100.00;99292.50;4979359;28;20065;-72
2022/10/24 00:10:26;;;;;;;15.23;2.00;;;;;;;14.15;100.00;99301.19;5002836;28;20033;-72
2022/10/24 00:12:53;;;;;;;19.02;3.10;;;;;;;14.18;100.00;99308.88;5003317;28;20042;-73
2022/10/24 00:15:18;;;;;;;22.80;2.58;;;;;;;14.17;100.00;99296.09;5030981;28;20550;-73
2022/10/24 00:17:44;;;;;;;20.13;2.97;;;;;;;14.20;100.00;99309.34;5023256;28;20025;-73
2022/10/24 00:20:10;;;;;;;19.15;2.97;;;;;;;14.19;100.00;99299.38;5014215;28;20033;-73
2022/10/24 00:22:35;;;;;;;21.08;3.40;;;;;;;14.20;100.00;99304.59;5029010;28;20025;-73
2022/10/24 00:25:01;;;;;;;25.10;3.78;;;;;;;14.24;100.00;99294.38;5023021;28;20032;-73
2022/10/24 00:27:26;;;;;;;19.98;3.20;;;;;;;14.24;100.00;99310.31;5057181;28;20029;-73
2022/10/24 00:29:51;;;;;;;30.08;4.43;;;;;;;14.23;100.00;99322.63;5039779;28;20416;-73
2022/10/24 00:32:17;;;;;;;25.92;3.72;;;;;;;14.26;100.00;99330.31;5017033;28;20037;-73
2022/10/24 00:34:42;;;;;;;32.40;4.10;;;;;;;14.26;100.00;99324.72;5032867;28;20038;-73
2022/10/24 00:37:08;;;;;;;25.45;4.03;;;;;;;14.23;100.00;99331.81;5003101;28;20060;-73
2022/10/24 00:39:33;;;;;;;30.55;4.07;;;;;;;14.25;100.00;99337.06;5019416;28;20064;-73
2022/10/24 00:41:59;;;;;;;22.52;3.42;;;;;;;14.28;100.00;99351.13;4994937;28;20044;-73
2022/10/24 00:44:26;;;;;;;28.88;4.47;;;;;;;14.29;100.00;99346.34;5022692;28;20497;-73
2022/10/24 00:46:56;;;;;;;25.75;3.90;;;;;;;14.29;100.00;99374.28;5022757;28;20021;-73
2022/10/24 00:49:24;;;;;;;23.05;3.47;;;;;;;14.32;100.00;99373.63;5015244;28;20029;-73
2022/10/24 00:51:52;;;;;;;30.15;4.38;;;;;;;14.31;100.00;99388.72;5005806;28;20030;-73
2022/10/24 00:54:17;;;;;;;22.95;3.83;;;;;;;14.33;100.00;99393.97;4998843;28;20056;-73
2022/10/24 00:56:50;;;;;;;23.58;3.78;;;;;;;14.34;100.00;99398.41;5023162;28;20034;-73
2022/10/24 00:59:15;;;;;;;21.93;4.27;;;;;;;14.36;100.00;99407.25;5020074;28;20045;-73
2022/10/24 01:01:41;;;;;;;28.15;3.95;;;;;;;14.35;100.00;99403.66;4999528;28;20294;-73
2022/10/24 01:04:11;;;;;;;20.30;3.38;;;;;;;14.37;100.00;99412.47;5015726;28;20044;-73
2022/10/24 01:06:39;;;;;;;16.40;3.00;;;;;;;14.35;100.00;99420.41;5029707;28;20045;-73
2022/10/24 01:09:30;;;;;;;16.90;2.88;;;;;;;14.36;100.00;99416.44;5019360;28;20030;-73
2022/10/24 01:12:34;;;;;;;20.10;2.80;;;;;;;14.32;100.00;99432.28;5029192;28;20033;-73
2022/10/24 01:15:10;;;;;;;15.63;2.58;;;;;;;14.34;100.00;99424.34;5028286;28;20103;-72
2022/10/24 01:17:45;;;;;;;11.65;2.25;;;;;;;14.34;100.00;99417.94;5015290;28;20107;-72
2022/10/24 01:20:44;;;;;;;8.63;1.38;;;;;;;14.31;100.00;99411.06;5033877;28;20036;-72
2022/10/24 01:23:26;;;;;;;10.52;1.52;;;;;;;14.31;100.00;99419.44;4999413;28;20034;-72
2022/10/24 01:26:03;;;;;;;9.80;1.48;;;;;;;14.27;100.00;99415.72;5002783;28;20075;-72
2022/10/24 01:29:00;;;;;;;6.72;1.15;;;;;;;14.27;100.00;99402.56;5014855;28;20091;-72
2022/10/24 01:31:32;;;;;;;7.13;0.95;;;;;;;14.26;100.00;99414.06;5034288;28;20047;-72
2022/10/24 01:34:00;;;;;;;;;;;;;;;14.26;100.00;99414.91;5006336;28;20033;-73
2022/10/24 01:36:34;;;;;;;9.85;1.33;;;;;;;14.22;100.00;99425.13;5038036;28;19912;-73
2022/10/24 01:39:01;;;;;;;7.35;1.00;;;;;;;14.20;100.00;99427.44;5038602;28;20033;-72
2022/10/24 01:41:27;;;;;;;5.70;1.02;;;;;;;14.16;100.00;99439.66;5021191;28;20609;-73
2022/10/24 01:44:01;;;;;;;3.78;0.60;;;;;;;14.15;100.00;99450.03;5037140;28;20040;-73
2022/10/24 01:46:28;;;;;;;6.85;1.02;;;;;;;14.09;100.00;99443.81;5007879;28;20486;-73
2022/10/24 01:48:59;;;;;;;3.42;0.90;;;;;;;14.06;100.00;99454.84;5007656;28;20451;-73
2022/10/24 01:51:26;;;;;;;9.13;1.10;;;;;;;14.06;100.00;99444.50;4998118;28;20159;-73
2022/10/24 01:53:51;;;;;;;8.70;1.48;;;;;;;14.05;100.00;99442.88;4998648;28;20037;-72
2022/10/24 01:56:17;;;;;;;6.93;1.00;;;;;;;14.00;100.00;99442.28;5001063;28;20033;-73
2022/10/24 01:58:42;;;;;;;7.75;0.93;;;;;;;13.99;100.00;99444.25;4998192;28;20040;-73
2022/10/24 02:01:11;;;;;;;8.10;1.40;;;;;;;13.99;100.00;99437.88;5014617;28;20034;-73
2022/10/24 02:03:39;;;;;;;9.45;1.30;;;;;;;14.01;100.00;99441.94;5014485;28;20057;-73
2022/10/24 02:06:09;;;;;;;5.90;1.17;;;;;;;13.99;100.00;99447.03;4998611;28;20037;-73
2022/10/24 02:08:40;;;;;;;9.82;1.40;;;;;;;13.94;100.00;99450.03;5018097;28;20053;-73
2022/10/24 02:11:06;;;;;;;8.05;1.17;;;;;;;13.95;100.00;99460.03;5034452;28;20022;-73
2022/10/24 02:13:44;;;;;;;8.63;1.25;;;;;;;13.93;100.00;99465.16;4988515;28;20029;-73
2022/10/24 02:16:09;;;;;;;5.75;1.00;;;;;;;13.91;100.00;99470.28;5020129;28;20049;-72
2022/10/24 02:18:35;;;;;;;8.75;1.45;;;;;;;13.89;100.00;99469.78;5012700;28;20025;-72
2022/10/24 02:21:03;;;;;;;8.52;1.00;;;;;;;13.89;100.00;99471.78;4996007;28;20026;-72
2022/10/24 02:23:42;;;;;;;6.75;1.00;;;;;;;13.89;100.00;99469.78;5034430;28;20034;-73
2022/10/24 02:26:10;;;;;;;8.13;1.15;;;;;;;13.87;100.00;99460.94;5015074;28;20030;-73
2022/10/24 02:28:39;;;;;;;9.95;1.40;;;;;;;13.85;100.00;99457.69;5018914;28;20021;-73
2022/10/24 02:31:15;;;;;;;7.28;1.02;;;;;;;13.85;100.00;99455.72;5037848;28;20051;-73
2022/10/24 02:33:40;;;;;;;7.95;1.25;;;;;;;13.83;100.00;99454.41;5038145;28;20064;-73
2022/10/24 02:36:07;;;;;;;8.73;1.05;;;;;;;13.80;100.00;99463.47;5021000;28;20517;-73
2022/10/24 02:38:34;;;;;;;11.57;1.38;;;;;;;13.80;100.00;99466.25;5020888;28;20033;-73
2022/10/24 02:41:01;;;;;;;6.50;1.35;;;;;;;13.75;100.00;99461.69;5037932;28;20025;-73
2022/10/24 02:43:27;;;;;;;7.68;1.08;;;;;;;13.71;100.00;99457.97;4997730;28;20029;-73
2022/10/24 02:45:52;;;;;;;5.65;0.93;;;;;;;13.73;100.00;99465.97;5011479;28;20083;-73
2022/10/24 02:48:19;;;;;;;10.70;1.45;;;;;;;13.71;100.00;99468.31;5017554;28;20037;-73
2022/10/24 02:50:45;;;;;;;8.15;1.20;;;;;;;13.70;100.00;99463.88;5014720;28;20033;-73
2022/10/24 02:53:14;;;;;;;10.10;1.35;;;;;;;13.66;100.00;99463.75;5020787;28;20036;-73
2022/10/24 02:55:39;;;;;;;5.70;1.02;;;;;;;13.62;100.00;99469.19;5024233;28;20037;-73
2022/10/24 02:58:05;;;;;;;7.65;1.08;;;;;;;13.58;100.00;99473.00;5008320;28;20021;-73
2022/10/24 03:00:30;;;;;;;6.65;0.80;;;;;;;13.57;100.00;99465.78;5024465;28;20029;-73
2022/10/24 03:02:56;;;;;;;5.30;1.00;;;;;;;13.53;100.00;99476.78;5017540;28;20433;-73
2022/10/24 03:05:21;;;;;;;8.38;1.08;;;;;;;13.52;100.00;99469.59;5001650;28;20096;-73
2022/10/24 03:07:47;;;;;;;9.95;1.58;;;;;;;13.50;100.00;99471.09;5006106;28;20045;-73
2022/10/24 03:10:12;;;;;;;9.35;1.17;;;;;;;13.47;100.00;99483.72;5017916;28;20037;-73
2022/10/24 03:12:38;;;;;;;12.63;1.10;;;;;;;13.47;100.00;99478.16;5004178;28;20390;-73
2022/10/24 03:15:04;;;;;;;8.63;1.30;;;;;;;13.46;100.00;99484.91;5020882;28;20704;-73
2022/10/24 03:17:29;;;;;;;7.45;1.25;;;;;;;13.44;100.00;99490.00;5001042;28;20041;-73
2022/10/24 03:19:55;;;;;;;8.98;1.30;;;;;;;13.40;100.00;99489.03;5003377;28;20032;-73
2022/10/24 03:22:20;;;;;;;6.63;0.90;;;;;;;13.41;100.00;99490.66;5009324;28;20029;-73
2022/10/24 03:24:46;;;;;;;5.57;0.82;;;;;;;13.40;100.00;99489.84;5011240;28;20033;-73
2022/10/24 03:27:11;;;;;;;11.18;1.15;;;;;;;13.40;100.00;99495.44;5017268;28;20025;-73
2022/10/24 03:29:37;;;;;;;8.60;1.05;;;;;;;13.41;100.00;99493.47;5010460;28;20064;-73
2022/10/24 03:32:02;;;;;;;7.50;1.27;;;;;;;13.41;100.00;99496.25;5023464;28;20037;-73
2022/10/24 03:34:28;;;;;;;3.97;0.98;;;;;;;13.44;100.00;99494.75;5024030;28;20103;-73
2022/10/24 03:36:54;;;;;;;7.80;0.98;;;;;;;13.47;100.00;99489.31;5007469;28;20055;-73
2022/10/24 03:39:19;;;;;;;5.75;0.80;;;;;;;13.47;100.00;99503.25;5022960;28;20064;-73
2022/10/24 03:41:44;;;;;;;7.13;0.93;;;;;;;13.49;100.00;99505.72;5020340;28;20061;-73
2022/10/24 03:44:10;;;;;;;9.25;1.40;;;;;;;13.50;100.00;99505.38;5001060;28;20034;-73
2022/10/24 03:46:35;;;;;;;7.53;1.35;;;;;;;13.49;100.00;99512.13;5021369;28;20075;-73
2022/10/24 03:49:01;;;;;;;5.70;0.90;;;;;;;13.49;100.00;99514.09;5023799;28;20041;-73
2022/10/24 03:51:26;;;;;;;6.20;0.85;;;;;;;13.53;100.00;99510.25;5007544;28;20033;-73
2022/10/24 03:53:52;;;;;;;7.88;1.08;;;;;;;13.54;100.00;99508.28;5040178;28;20037;-74
2022/10/24 03:56:17;;;;;;;9.52;1.13;;;;;;;13.55;100.00;99512.72;5023539;28;20397;-73
2022/10/24 03:58:43;;;;;;;10.25;1.20;;;;;;;13.55;100.00;99516.34;5039925;28;20044;-73
2022/10/24 04:01:09;;;;;;;11.07;1.50;;;;;;;13.52;100.00;99519.81;5007379;28;20040;-73
2022/10/24 04:03:34;;;;;;;6.82;1.05;;;;;;;13.53;100.00;99521.41;5011341;28;20482;-73
2022/10/24 04:06:00;;;;;;;8.07;1.20;;;;;;;13.53;100.00;99515.84;4998880;28;20022;-73
2022/10/24 04:08:25;;;;;;;14.48;1.52;;;;;;;13.54;100.00;99505.50;5013949;28;20441;-73
2022/10/24 04:10:51;;;;;;;10.82;1.27;;;;;;;13.56;100.00;99517.16;5017139;28;20026;-73
2022/10/24 04:13:16;;;;;;;11.27;1.42;;;;;;;13.56;100.00;99517.16;5019576;28;20042;-73
2022/10/24 04:15:42;;;;;;;12.70;1.63;;;;;;;13.57;100.00;99514.03;5036464;28;20394;-73
2022/10/24 04:18:08;;;;;;;14.13;1.27;;;;;;;13.55;100.00;99513.53;5036367;28;20386;-74
2022/10/24 04:20:34;;;;;;;9.27;1.10;;;;;;;13.56;100.00;99515.16;5036342;28;20026;-73
2022/10/24 04:22:59;;;;;;;10.07;1.40;;;;;;;13.55;100.00;99519.13;5000209;28;20030;-73
2022/10/24 04:25:25;;;;;;;9.82;1.30;;;;;;;13.55;100.00;99524.69;5037775;28;20547;-73
2022/10/24 04:27:50;;;;;;;11.13;1.40;;;;;;;13.53;100.00;99526.19;5039309;28;20500;-73
2022/10/24 04:30:15;;;;;;;12.50;1.83;;;;;;;13.50;100.00;99524.88;5039418;28;20044;-73
2022/10/24 04:32:41;;;;;;;14.48;2.17;;;;;;;13.51;100.00;99529.34;5023016;28;20104;-73
2022/10/24 04:35:07;;;;;;;13.57;1.67;;;;;;;13.49;100.00;99537.22;5009629;28;20125;-73
2022/10/24 04:37:32;;;;;;;14.00;2.22;;;;;;;13.51;100.00;99529.34;5015366;28;20040;-73
2022/10/24 04:39:58;;;;;;;18.45;2.65;;;;;;;13.52;100.00;99535.72;5023012;28;20416;-73
2022/10/24 04:42:23;;;;;;;16.83;2.08;;;;;;;13.50;100.00;99535.25;5011873;28;20370;-73
2022/10/24 04:44:49;;;;;;;15.35;2.15;;;;;;;13.53;100.00;99532.59;4999851;28;20059;-73
2022/10/24 04:47:15;;;;;;;20.13;2.30;;;;;;;13.54;100.00;99525.03;4999770;28;20029;-73
2022/10/24 04:49:40;;;;;;;17.30;2.17;;;;;;;13.54;100.00;99531.44;4999184;28;20026;-73
2022/10/24 04:52:06;;;;;;;13.30;2.20;;;;;;;13.51;100.00;99534.91;5015794;28;20026;-73
2022/10/24 04:54:31;;;;;;;17.23;2.72;;;;;;;13.53;100.00;99546.53;5034180;28;20034;-73
2022/10/24 04:56:57;;;;;;;18.70;2.28;;;;;;;13.57;100.00;99547.50;5014476;28;20029;-73
2022/10/24 04:59:22;;;;;;;12.75;2.30;;;;;;;13.53;100.00;99548.50;5011135;28;20095;-73
2022/10/24 05:01:48;;;;;;;19.05;2.83;;;;;;;13.54;100.00;99556.56;5015909;28;20033;-73
2022/10/24 05:04:13;;;;;;;15.15;2.63;;;;;;;13.57;100.00;99555.88;4999179;28;20034;-73
2022/10/24 05:06:39;;;;;;;21.83;3.15;;;;;;;13.55;100.00;99551.78;5026612;28;20056;-73
2022/10/24 05:09:04;;;;;;;20.77;2.53;;;;;;;13.59;100.00;99564.69;4999498;28;20057;-73
2022/10/24 05:11:30;;;;;;;18.30;2.67;;;;;;;13.58;100.00;99549.13;5006253;28;20026;-73
2022/10/24 05:13:56;;;;;;;23.98;3.30;;;;;;;13.59;100.00;99550.75;5015480;28;20025;-73
2022/10/24 05:16:22;;;;;;;17.25;2.50;;;;;;;13.55;100.00;99541.44;5020172;28;20108;-73
2022/10/24 05:18:47;;;;;;;17.73;2.53;;;;;;;13.57;100.00;99549.47;5038378;28;20032;-73
2022/10/24 05:21:12;;;;;;;15.95;2.47;;;;;;;13.55;100.00;99547.00;5002314;28;20556;-73
2022/10/24 05:23:38;;;;;;;19.83;2.80;;;;;;;13.55;100.00;99549.81;5001258;28;20029;-73
2022/10/24 05:26:03;;;;;;;18.63;2.80;;;;;;;13.52;100.00;99555.25;5022121;28;20025;-73
2022/10/24 05:28:29;;;;;;;16.58;2.80;;;;;;;13.52;100.00;99556.06;5021786;28;20405;-73
2022/10/24 05:30:54;;;;;;;17.75;2.90;;;;;;;13.50;100.00;99557.56;5045327;28;20083;-73
2022/10/24 05:33:22;;;;;;;19.70;3.38;;;;;;;13.49;100.00;99562.31;5018427;28;20034;-73
2022/10/24 05:35:48;;;;;;;25.80;4.00;;;;;;;13.48;100.00;99557.88;4999467;28;20030;-72
2022/10/24 05:38:14;;;;;;;19.52;3.17;;;;;;;13.47;100.00;99563.81;5024522;28;20049;-73
2022/10/24 05:40:39;;;;;;;20.45;2.38;;;;;;;13.48;100.00;99559.84;5022060;28;20385;-73
2022/10/24 05:43:05;;;;;;;18.13;3.30;;;;;;;13.49;100.00;99567.91;5021471;28;20083;-73
2022/10/24 05:45:30;;;;;;;22.40;3.10;;;;;;;13.49;100.00;99569.88;5021625;28;20021;-73
2022/10/24 05:47:56;;;;;;;22.48;3.65;;;;;;;13.49;100.00;99565.09;5055857;28;20037;-73
2022/10/24 05:50:21;;;;;;;24.20;2.83;;;;;;;13.48;100.00;99568.22;5037944;28;20071;-73
2022/10/24 05:52:47;;;;;;;20.35;2.70;;;;;;;13.49;100.00;99570.69;5005064;28;20036;-74
2022/10/24 05:55:13;;;;;;;19.63;3.25;;;;;;;13.50;100.00;99575.09;5021633;28;20052;-73
2022/10/24 05:57:38;;;;;;;24.98;3.67;;;;;;;13.48;100.00;99571.81;5021476;28;20028;-74
2022/10/24 06:00:08;;;;;;;19.52;3.03;;;;;;;13.48;100.00;99574.59;5021415;28;20029;-73
2022/10/24 06:02:33;;;;;;;27.83;3.30;;;;;;;13.47;100.00;99569.38;4997562;28;20163;-73
2022/10/24 06:04:59;;;;;;;17.52;2.78;;;;;;;13.47;100.00;99574.97;5025342;28;20034;-73
2022/10/24 06:07:24;;;;;;;20.45;3.03;;;;;;;13.44;100.00;99576.44;5016165;28;20041;-73
2022/10/24 06:09:50;;;;;;;19.67;3.40;;;;;;;13.43;100.00;99574.81;5001611;28;20037;-73
2022/10/24 06:12:15;;;;;;;22.77;3.45;;;;;;;13.46;100.00;99574.16;5004071;28;20033;-73
2022/10/24 06:14:41;;;;;;;32.30;4.43;;;;;;;13.45;100.00;99582.84;5034403;28;20032;-73
2022/10/24 06:17:08;;;;;;;24.60;3.90;;;;;;;13.38;100.00;99575.00;5018761;28;20048;-73
2022/10/24 06:19:35;;;;;;;18.85;3.53;;;;;;;13.40;100.00;99581.88;5014692;28;20038;-73
2022/10/24 06:22:01;;;;;;;26.98;3.55;;;;;;;13.40;100.00;99567.13;4998054;28;20028;-73
2022/10/24 06:24:26;;;;;;;23.98;3.97;;;;;;;13.38;100.00;99570.25;5014289;28;20387;-73
2022/10/24 06:26:52;;;;;;;23.38;3.38;;;;;;;13.37;100.00;99576.16;5031288;28;20029;-73
2022/10/24 06:29:17;;;;;;;26.60;3.58;;;;;;;13.31;100.00;99583.88;5008098;28;20037;-73
2022/10/24 06:31:43;;;;;;;29.48;3.47;;;;;;;13.31;100.00;99588.66;5002447;28;20045;-73
2022/10/24 06:34:08;;;;;;;25.02;3.75;;;;;;;13.27;100.00;99598.84;5012293;28;20026;-73
2022/10/24 06:36:35;;;;;;;21.88;3.58;;;;;;;13.28;100.00;99597.69;4997379;28;20036;-74
2022/10/24 06:39:01;;;;;;;20.83;2.92;;;;;;;13.26;100.00;99602.75;5028043;28;20112;-73
2022/10/24 06:41:26;;;;;;;21.20;3.17;;;;;;;13.24;100.00;99605.06;5060704;28;20057;-73
2022/10/24 06:43:52;;;;;;;32.25;4.32;;;;;;;13.21;100.00;99609.34;5027497;28;20530;-73
2022/10/24 06:46:22;;;;;;;25.13;3.35;;;;;;;13.15;100.00;99611.47;5027431;28;20017;-73
2022/10/24 06:48:47;;;;;;;30.08;4.22;;;;;;;13.13;100.00;99618.53;5028764;28;20033;-72
2022/10/24 06:51:14;;;;;;;19.10;3.28;;;;;;;13.12;100.00;99614.94;5027483;28;20056;-72
2022/10/24 06:53:40;;;;;;;17.42;2.97;;;;;;;13.12;100.00;99620.50;5044157;28;20037;-72
2022/10/24 06:56:06;;;;;;;26.15;3.75;;;;;;;13.10;100.00;99631.19;5010845;28;20041;-72
2022/10/24 06:58:32;;;;;;;25.80;3.60;;;;;;;13.06;100.00;99629.38;5027252;28;20028;-72
2022/10/24 07:00:58;;;;;;;25.85;3.83;;;;;;;13.07;100.00;99634.63;5027238;28;20405;-72
2022/10/24 07:03:23;;;;;;;25.10;3.35;;;;;;;13.05;100.00;99639.72;5013148;28;20033;-73
2022/10/24 07:05:49;;;;;;;23.95;3.22;;;;;;;13.06;100.00;99635.75;5020714;28;20555;-72
2022/10/24 07:08:14;;;;;;;17.80;2.72;;;;;;;13.04;100.00;99640.03;5031198;28;20057;-73
2022/10/24 07:10:40;;;;;;;24.33;3.40;;;;;;;13.03;100.00;99644.78;5004474;28;20029;-72
2022/10/24 07:13:05;;;;;;;20.17;3.20;;;;;;;13.03;100.00;99647.56;5031558;28;20494;-73
2022/10/24 07:15:31;;;;;;;19.40;3.05;;;;;;;13.04;100.00;99652.03;5018019;28;20027;-72
2022/10/24 07:17:57;;;;;;;21.83;2.83;;;;;;;13.06;100.00;99658.06;5020643;28;20058;-72
2022/10/24 07:20:23;;;;;;;19.10;2.92;;;;;;;13.04;100.00;99654.81;5003972;28;20034;-72
2022/10/24 07:22:48;;;;;;;21.33;3.75;;;;;;;13.06;100.00;99655.28;5017157;28;20034;-73
2022/10/24 07:25:14;;;;;;;15.38;2.95;;;;;;;13.07;100.00;99658.91;5018030;28;20454;-72
2022/10/24 07:27:40;;;;;;;24.92;3.42;;;;;;;13.08;100.00;99668.88;5025701;28;20026;-72
2022/10/24 07:30:06;;;;;;;22.50;4.05;;;;;;;13.08;100.00;99666.91;5026357;28;20040;-72
2022/10/24 07:32:31;;;;;;;20.95;2.53;;;;;;;13.10;100.00;99667.41;5007342;28;20029;-72
2022/10/24 07:34:57;;;;;;;21.13;3.42;;;;;;;13.13;100.00;99677.91;4991017;28;20055;-72
2022/10/24 07:37:22;;;;;;;16.77;2.63;;;;;;;13.10;100.00;99686.13;5004346;28;20083;-72
2022/10/24 07:39:48;;;;;;;19.08;2.42;;;;;;;13.12;100.00;99689.38;5004272;28;20038;-72
2022/10/24 07:42:13;;;;;;;23.90;3.05;;;;;;;13.11;100.00;99690.53;5006359;28;20487;-73
2022/10/24 07:44:39;;;;;;;19.95;2.80;;;;;;;13.13;100.00;99694.63;5018461;28;20091;-73
2022/10/24 07:47:07;;;;;;;21.50;4.03;;;;;;;13.15;100.00;99708.25;5024395;28;20099;-72
2022/10/24 07:49:33;;;;;;;19.67;2.75;;;;;;;13.14;100.00;99704.63;5020764;28;20034;-73
2022/10/24 07:51:59;;;;;;;25.85;3.47;;;;;;;13.15;100.00;99703.50;5024160;28;20083;-72
2022/10/24 07:54:25;;;;;;;17.90;3.22;;;;;;;13.14;100.00;99715.75;5035014;28;20036;-72
2022/10/24 07:56:51;;;;;;;18.23;2.65;;;;;;;13.17;100.00;99719.88;5056544;28;20044;-73
2022/10/24 07:59:16;;;;;;;16.08;2.67;;;;;;;13.17;100.00;99719.88;5002619;28;20041;-72
2022/10/24 08:01:42;;;;;;;26.45;3.53;;;;;;;13.22;100.00;99727.25;5007543;28;20529;-73
2022/10/24 08:04:09;;;;;;;16.85;2.58;;;;;;;13.28;100.00;99728.72;4998026;28;20515;-73
2022/10/24 08:06:34;;;;;;;22.95;2.70;;;;;;;13.34;100.00;99741.34;5013958;28;20086;-73
2022/10/24 08:09:00;;;;;;;22.23;2.95;;;;;;;13.41;100.00;99739.69;5021150;28;20041;-73
2022/10/24 08:11:26;;;;;;;25.17;3.55;;;;;;;13.49;100.00;99745.59;5007896;28;20045;-73
2022/10/24 08:13:52;;;;;;;21.65;3.65;;;;;;;13.56;100.00;99738.34;4997051;28;20040;-72
2022/10/24 08:16:19;;;;;;;20.70;3.38;;;;;;;13.63;100.00;99741.44;5023170;28;20455;-73
2022/10/24 08:18:45;;;;;;;27.60;3.47;;;;;;;13.69;100.00;99735.69;5012617;28;20087;-73
2022/10/24 08:21:12;;;;;;;18.15;3.00;;;;;;;13.74;100.00;99741.91;5018906;28;20041;-73
2022/10/24 08:23:39;;;;;;;22.60;3.30;;;;;;;13.80;100.00;99734.16;5033693;28;20025;-73
2022/10/24 08:26:08;;;;;;;22.02;2.58;;;;;;;13.84;100.00;99749.88;5020048;28;20026;-73
2022/10/24 08:28:34;;;;;;;20.80;3.33;;;;;;;13.87;100.00;99748.41;4998718;28;20041;-72
2022/10/24 08:31:01;;;;;;;20.17;3.45;;;;;;;13.91;100.00;99746.59;4991823;28;20060;-73
2022/10/24 08:33:27;;;;;;;19.52;2.60;;;;;;;13.94;100.00;99745.13;5019694;28;20057;-72
2022/10/24 08:35:54;;;;;;;25.27;3.13;;;;;;;13.99;100.00;99767.25;5003350;28;20025;-72
2022/10/24 08:38:19;;;;;;;22.63;3.28;;;;;;;13.99;100.00;99762.50;4998067;28;20036;-72
2022/10/24 08:40:47;;;;;;;23.17;3.25;;;;;;;14.03;100.00;99759.84;5005920;28;20497;-73
2022/10/24 08:43:13;;;;;;;22.48;2.90;;;;;;;14.08;100.00;99770.81;5039377;28;20063;-73
2022/10/24 08:45:45;;;;;;;20.25;3.50;;;;;;;14.15;100.00;99775.88;5039469;28;20029;-73
2022/10/24 08:48:13;;;;;;;17.67;2.95;;;;;;;14.18;100.00;99769.63;5039209;28;20063;-72
2022/10/24 08:50:40;;;;;;;19.27;3.15;;;;;;;14.25;100.00;99775.50;5039463;28;20033;-73
2022/10/24 08:53:13;;;;;;;17.38;2.58;;;;;;;14.28;100.00;99767.25;5022205;28;20025;-73
2022/10/24 08:55:48;;;;;;;25.30;3.08;;;;;;;14.39;100.00;99776.06;5020388;28;20046;-72
2022/10/24 08:58:16;;;;;;;19.63;2.25;;;;;;;14.45;100.00;99771.94;5035732;28;20091;-73
2022/10/24 09:00:43;;;;;;;22.38;2.70;;;;;;;14.56;100.00;99774.38;5018162;28;20032;-73
2022/10/24 09:03:16;;;;;;;16.55;2.72;;;;;;;14.62;100.00;99785.00;5013510;28;20116;-73
2022/10/24 09:05:46;;;;;;;23.70;2.72;;;;;;;14.69;100.00;99779.69;5035676;28;20029;-72
2022/10/24 09:08:29;;;;;;;25.77;2.72;;;;;;;14.80;100.00;99780.13;5019514;28;20053;-73
2022/10/24 09:10:59;;;;;;;23.05;2.90;;;;;;;14.89;100.00;99782.84;5000716;28;20548;-73
2022/10/24 09:13:25;;;;;;;20.38;2.90;;;;;;;15.01;100.00;99779.28;5018729;28;20394;-73
2022/10/24 09:15:50;;;;;;;22.70;3.53;;;;;;;15.13;100.00;99790.56;5018593;28;20030;-73
2022/10/24 09:18:24;;;;;;;21.13;3.75;;;;;;;15.22;100.00;99784.88;5026459;28;20048;-72
2022/10/24 09:20:50;;;;;;;20.73;3.20;;;;;;;15.34;100.00;99782.94;5004344;28;20108;-72
2022/10/24 09:23:16;;;;;;;17.50;2.85;;;;;;;15.47;100.00;99788.59;5016760;28;20103;-72
2022/10/24 09:25:44;;;;;;;21.00;3.40;;;;;;;15.59;100.00;99786.63;5015494;28;20041;-72
2022/10/24 09:28:09;;;;;;;26.85;3.53;;;;;;;15.72;100.00;99792.31;5010523;28;20241;-72
2022/10/24 09:30:36;;;;;;;22.75;2.80;;;;;;;15.87;100.00;99791.63;4998640;28;20029;-73
2022/10/24 09:33:11;;;;;;;29.13;3.67;;;;;;;15.98;100.00;99786.41;5016992;28;20032;-73
2022/10/24 09:35:37;;;;;;;21.02;3.22;;;;;;;16.08;100.00;99783.97;5022631;28;20036;-73
2022/10/24 09:38:21;;;;;;;23.05;3.47;;;;;;;16.22;100.00;99794.03;5021647;28;20087;-73
2022/10/24 09:40:51;;;;;;;19.30;2.88;;;;;;;16.38;100.00;99791.34;5037911;28;20462;-73
2022/10/24 09:43:20;;;;;;;23.20;3.63;;;;;;;16.52;100.00;99792.63;5021485;28;20044;-73
2022/10/24 09:45:55;;;;;;;21.58;3.17;;;;;;;16.68;100.00;99792.69;5006469;28;20048;-72
2022/10/24 09:48:23;;;;;;;21.48;3.38;;;;;;;16.80;100.00;99785.47;5022484;28;20030;-73
2022/10/24 09:50:50;;;;;;;20.27;3.15;;;;;;;16.94;100.00;99785.94;5000520;28;20056;-73
2022/10/24 09:53:26;;;;;;;22.15;3.15;;;;;;;17.05;100.00;99787.06;5001887;28;20029;-73
2022/10/24 09:55:54;;;;;;;18.77;2.85;;;;;;;17.18;100.00;99791.44;5033460;28;20048;-73
2022/10/24 09:58:21;;;;;;;22.35;2.75;;;;;;;17.32;100.00;99788.25;5021562;28;20033;-73
2022/10/24 10:00:57;;;;;;;27.25;3.70;;;;;;;17.46;100.00;99793.44;5021568;28;20428;-73
2022/10/24 10:03:24;;;;;;;23.75;3.63;;;;;;;17.58;100.00;99793.41;5010640;28;20387;-73
2022/10/24 10:05:53;;;;;;;20.63;3.70;;;;;;;17.69;100.00;99787.25;5019012;28;20083;-73
2022/10/24 10:08:29;;;;;;;17.80;3.03;;;;;;;17.73;100.00;99805.03;5024426;28;20040;-73
2022/10/24 10:10:59;;;;;;;19.15;2.35;;;;;;;17.80;100.00;99799.63;5014826;28;20060;-73
2022/10/24 10:13:26;;;;;;;13.90;2.47;;;;;;;17.85;100.00;99813.41;5003243;28;20033;-73
2022/10/24 10:15:57;;;;;;;22.60;3.05;;;;;;;17.81;100.00;99807.69;4989149;28;20026;-73
2022/10/24 10:18:34;;;;;;;25.98;2.97;;;;;;;17.80;100.00;99810.84;5018675;28;20037;-73
2022/10/24 10:21:02;;;;;;;15.18;1.88;;;;;;;17.79;100.00;99814.84;5014881;28;20030;-73
2022/10/24 10:23:48;;;;;;;17.63;2.70;;;;;;;17.76;100.00;99815.53;5015033;28;20060;-73
2022/10/24 10:26:22;;;;;;;18.25;2.90;;;;;;;17.70;100.00;99822.59;5023941;28;20108;-73
2022/10/24 10:29:02;;;;;;;16.38;2.53;;;;;;;17.65;100.00;99827.28;5031392;28;20029;-73
2022/10/24 10:31:42;;;;;;;14.50;2.45;;;;;;;17.57;100.00;99825.44;4987783;28;20033;-73
2022/10/24 10:34:26;;;;;;;11.52;2.20;;;;;;;17.52;100.00;99827.69;5022078;28;20020;-73
2022/10/24 10:36:58;;;;;;;11.18;1.95;;;;;;;17.44;100.00;99823.88;5055323;28;20086;-73
2022/10/24 10:39:40;;;;;;;16.13;2.40;;;;;;;17.40;100.00;99820.94;5053944;28;20147;-73
2022/10/24 10:42:11;;;;;;;15.15;1.90;;;;;;;17.33;100.00;99831.19;5021605;28;20029;-73
2022/10/24 10:44:43;;;;;;;16.13;2.28;;;;;;;17.34;100.00;99839.22;5021980;28;20033;-73
2022/10/24 10:47:17;;;;;;;13.88;2.47;;;;;;;17.31;100.00;99839.13;5035997;28;20025;-73
2022/10/24 10:49:42;;;;;;;13.60;2.03;;;;;;;17.28;100.00;99843.47;5034246;28;20034;-73
2022/10/24 10:52:12;;;;;;;15.63;2.53;;;;;;;17.26;100.00;99837.38;5006058;28;20029;-73
2022/10/24 10:54:53;;;;;;;23.00;2.25;;;;;;;17.26;100.00;99843.00;5025303;28;20116;-73
2022/10/24 10:57:30;;;;;;;19.42;2.28;;;;;;;17.24;100.00;99853.75;5033322;28;20061;-73
2022/10/24 11:00:40;;;;;;;13.15;2.35;;;;;;;17.17;100.00;99854.34;4987094;28;20022;-73
2022/10/24 11:03:18;;;;;;;15.98;2.25;;;;;;;17.14;100.00;99857.06;5004736;28;20029;-73
2022/10/24 11:06:21;;;;;;;10.95;1.95;;;;;;;17.06;100.00;99867.25;5018234;28;20159;-73
2022/10/24 11:09:04;;;;;;;14.70;2.42;;;;;;;16.98;100.00;99860.59;5021321;28;20084;-73
2022/10/24 11:11:43;;;;;;;14.00;2.45;;;;;;;16.91;100.00;99862.34;5015684;28;20456;-72
2022/10/24 11:14:27;;;;;;;15.07;2.30;;;;;;;16.83;100.00;99866.94;4989954;28;20072;-73
2022/10/24 11:16:54;;;;;;;11.30;1.95;;;;;;;16.80;100.00;99869.59;5034182;28;20029;-73
2022/10/24 11:19:25;;;;;;;16.08;2.10;;;;;;;16.71;100.00;99873.31;5004477;28;20097;-73
2022/10/24 11:21:50;;;;;;;13.45;2.22;;;;;;;16.64;100.00;99875.88;5018752;28;20053;-73
2022/10/24 11:24:20;;;;;;;10.95;1.70;;;;;;;16.62;100.00;99869.00;5028520;28;20025;-72